Independence, Ohio
Current Conditions -  °F | °C
As of 9:53 AM on Sunday 21 Dec 2014 (Local Time) from KBKL Reporting Station
Overcast Overcast  
Wind Chill: 27°   Ceiling: 2300
Heat Index: 32°   Visibility: 10mi
Dew Point: 22°   Wind: 5mph
Humidity: 66%   Direction: 160°SSE
Pressure: 30.33"   Gusts: NA
Location:  41.38°N, 81.64°W
Report Text: KBKL 211453Z 16004KT 10SM OVC023 00/M06 A3033 RMK AO2 SLP276 T00001056 53003
Loading
Personal Weather Stations






























Interactive Weather Map New forecast layout! Learn more

10-Day Weather Forecast

Advertisements
Track Severe Weather on mobile